METAR Data

Data at: 1023 UTC 21 Apr 2021

METAR for:KLWM (Lawrence Muni, MA, US)
Text:KLWM 210954Z AUTO 00000KT 10SM CLR 04/03 A2984 RMK AO2 SLP104 T00440033
Temperature: 4.4°C ( 40°F)
Dewpoint: 3.3°C ( 38°F) [RH = 93%]
Pressure (altimeter):29.84 inches Hg (1010.6 mb) [Sea level pressure: 1010.4 mb]
Winds:calm
Visibility:10 or more sm (16+ km)
Ceiling:at least 12,000 feet AGL
Clouds:sky clear below 12,000 feet AGL
QC Flag:automated observation with no human augmentation